createdAt,value
2023-03-21T00:00:12.920Z,19.87
2023-03-21T00:00:45.532Z,19.90
2023-03-21T00:01:17.433Z,19.70
2023-03-21T00:01:53.660Z,20.27
2023-03-21T00:02:25.859Z,20.80
2023-03-21T00:02:57.773Z,20.37
2023-03-21T00:03:30.696Z,20.07
2023-03-21T00:04:03.359Z,20.87
2023-03-21T00:04:48.360Z,20.37
2023-03-21T00:05:22.606Z,20.20
2023-03-21T00:05:54.432Z,20.60
2023-03-21T00:06:26.287Z,19.47
2023-03-21T00:06:57.951Z,19.10
2023-03-21T00:07:29.609Z,20.27
2023-03-21T00:08:02.677Z,20.40
2023-03-21T00:08:34.542Z,19.97
2023-03-21T00:09:06.294Z,20.20
2023-03-21T00:09:38.043Z,21.50
2023-03-21T00:10:16.530Z,20.63
2023-03-21T00:11:00.687Z,18.27
2023-03-21T00:11:32.344Z,19.17
2023-03-21T00:12:07.384Z,20.40
2023-03-21T00:12:39.324Z,19.80
2023-03-21T00:13:15.589Z,19.47
2023-03-21T00:13:47.308Z,19.43
2023-03-21T00:14:20.226Z,18.53
2023-03-21T00:14:54.115Z,18.90
2023-03-21T00:15:30.697Z,19.80
2023-03-21T00:16:20.510Z,18.57
2023-03-21T00:16:57.493Z,17.83
2023-03-21T00:17:31.222Z,18.40
2023-03-21T00:18:03.770Z,18.77
2023-03-21T00:18:36.869Z,18.27
2023-03-21T00:19:09.815Z,19.33
2023-03-21T00:19:41.994Z,19.37
2023-03-21T00:20:14.885Z,19.00
2023-03-21T00:21:15.808Z,17.37
2023-03-21T00:22:06.280Z,17.20
2023-03-21T00:22:39.393Z,17.73
2023-03-21T00:23:11.372Z,18.33
2023-03-21T00:23:44.476Z,18.70
2023-03-21T00:24:16.512Z,18.33
2023-03-21T00:24:48.361Z,18.07
2023-03-21T00:25:20.214Z,17.63
2023-03-21T00:25:51.990Z,17.03
2023-03-21T00:26:24.010Z,17.33
2023-03-21T00:27:03.502Z,17.90
2023-03-21T00:28:00.882Z,17.87
2023-03-21T00:28:33.099Z,17.80
2023-03-21T00:29:05.212Z,17.67
2023-03-21T00:29:36.869Z,17.77
2023-03-21T00:30:09.244Z,17.93
2023-03-21T00:30:41.136Z,17.53
2023-03-21T00:31:12.806Z,17.67
2023-03-21T00:31:44.542Z,17.80
2023-03-21T00:32:17.194Z,17.90
2023-03-21T00:32:55.425Z,18.23
2023-03-21T00:33:27.752Z,18.93
2023-03-21T00:33:59.598Z,17.60
2023-03-21T00:34:48.398Z,17.87
2023-03-21T00:36:07.333Z,16.97
2023-03-21T00:36:39.105Z,15.77
2023-03-21T00:37:14.455Z,15.90
2023-03-21T00:37:46.324Z,16.70
2023-03-21T00:38:19.507Z,16.40
2023-03-21T00:38:51.509Z,16.43
2023-03-21T00:39:23.192Z,15.53
2023-03-21T00:39:54.981Z,15.37
2023-03-21T00:40:33.032Z,15.83
2023-03-21T00:41:20.955Z,16.47
2023-03-21T00:41:55.454Z,15.67
2023-03-21T00:42:27.136Z,14.80
2023-03-21T00:42:58.782Z,15.27
2023-03-21T00:43:30.458Z,14.73
2023-03-21T00:44:04.133Z,14.67
2023-03-21T00:44:36.938Z,15.13
2023-03-21T00:45:10.541Z,14.57
2023-03-21T00:45:42.221Z,14.07
2023-03-21T00:46:14.034Z,14.27
2023-03-21T00:47:00.553Z,13.43
2023-03-21T00:47:36.196Z,13.83
2023-03-21T00:48:08.949Z,13.87
2023-03-21T00:48:40.618Z,14.03
2023-03-21T00:49:12.346Z,14.60
2023-03-21T00:49:44.053Z,13.60
2023-03-21T00:50:16.097Z,13.43
2023-03-21T00:50:48.518Z,14.00
2023-03-21T00:51:26.597Z,14.43
2023-03-21T00:52:08.723Z,14.43
2023-03-21T00:52:46.735Z,13.80
2023-03-21T00:53:18.914Z,14.40
2023-03-21T00:53:50.531Z,14.63
2023-03-21T00:54:22.207Z,13.97
2023-03-21T00:54:53.952Z,14.43
2023-03-21T00:55:25.795Z,15.17
2023-03-21T00:55:57.440Z,16.13
2023-03-21T00:56:29.091Z,16.60
2023-03-21T00:57:01.634Z,16.43
2023-03-21T00:57:39.400Z,15.47
2023-03-21T00:58:11.531Z,16.17
2023-03-21T00:58:43.201Z,16.13
2023-03-21T00:59:14.939Z,16.07
2023-03-21T00:59:46.602Z,16.47
2023-03-21T01:00:19.159Z,15.77
2023-03-21T01:00:50.855Z,16.57
2023-03-21T01:01:22.589Z,16.20
2023-03-21T01:01:54.422Z,16.67
2023-03-21T01:02:26.920Z,16.33
2023-03-21T01:03:17.592Z,15.87
2023-03-21T01:04:05.377Z,16.10
2023-03-21T01:04:37.084Z,15.73
2023-03-21T01:05:11.505Z,16.03
2023-03-21T01:06:07.756Z,15.57
2023-03-21T01:06:40.359Z,16.57
2023-03-21T01:07:12.007Z,16.33
2023-03-21T01:07:43.643Z,16.63
2023-03-21T01:08:25.415Z,15.90
2023-03-21T01:08:59.996Z,15.53
2023-03-21T01:09:31.720Z,15.83
2023-03-21T01:10:04.258Z,15.80
2023-03-21T01:10:41.856Z,16.20
2023-03-21T01:11:19.107Z,16.73
2023-03-21T01:11:51.025Z,16.10
2023-03-21T01:12:22.745Z,16.20
2023-03-21T01:12:54.381Z,15.50
2023-03-21T01:13:26.081Z,15.93
2023-03-21T01:14:10.881Z,15.97
2023-03-21T01:14:46.786Z,16.43
2023-03-21T01:15:18.508Z,15.70
2023-03-21T01:15:54.501Z,16.10
2023-03-21T01:16:26.564Z,16.37
2023-03-21T01:16:58.241Z,15.77
2023-03-21T01:17:29.938Z,15.43
2023-03-21T01:18:02.001Z,15.97
2023-03-21T01:18:35.378Z,15.77
2023-03-21T01:19:14.883Z,15.87
2023-03-21T01:19:53.986Z,16.23
2023-03-21T01:20:26.319Z,15.73
2023-03-21T01:21:00.473Z,16.57
2023-03-21T01:21:32.595Z,16.73
2023-03-21T01:22:04.510Z,16.70
2023-03-21T01:22:36.192Z,17.37
2023-03-21T01:23:08.411Z,16.40
2023-03-21T01:23:42.910Z,16.67
2023-03-21T01:24:14.609Z,17.23
2023-03-21T01:24:54.234Z,17.10
2023-03-21T01:25:30.288Z,16.27
2023-03-21T01:26:02.343Z,17.47
2023-03-21T01:26:34.083Z,17.10
2023-03-21T01:27:06.025Z,16.97
2023-03-21T01:27:37.729Z,17.43
2023-03-21T01:28:10.913Z,17.03
2023-03-21T01:28:44.323Z,16.43
2023-03-21T01:29:16.011Z,16.63
2023-03-21T01:29:47.632Z,16.77
2023-03-21T01:30:22.846Z,16.37
2023-03-21T01:30:56.132Z,15.43
2023-03-21T01:31:27.844Z,15.90
2023-03-21T01:31:59.501Z,16.10
2023-03-21T01:32:31.149Z,16.03
2023-03-21T01:33:02.878Z,16.43
2023-03-21T01:33:34.959Z,16.00
2023-03-21T01:34:06.813Z,16.70
2023-03-21T01:34:38.452Z,16.53
2023-03-21T01:35:10.099Z,16.87
2023-03-21T01:35:50.297Z,15.73
2023-03-21T01:36:26.753Z,15.40
2023-03-21T01:36:58.609Z,16.60
2023-03-21T01:37:30.582Z,16.07
2023-03-21T01:38:02.300Z,15.87
2023-03-21T01:38:34.126Z,16.23
2023-03-21T01:39:06.751Z,17.93
2023-03-21T01:39:38.429Z,16.93
2023-03-21T01:40:18.310Z,16.33
2023-03-21T01:40:51.267Z,16.27
2023-03-21T01:41:42.412Z,16.80
2023-03-21T01:42:15.107Z,16.87
2023-03-21T01:42:46.823Z,16.33
2023-03-21T01:43:29.154Z,16.20
2023-03-21T01:44:01.106Z,16.43
2023-03-21T01:44:32.775Z,16.23
2023-03-21T01:45:26.717Z,16.40
2023-03-21T01:46:07.740Z,16.97
2023-03-21T01:47:00.392Z,17.00
2023-03-21T01:47:34.040Z,17.43
2023-03-21T01:48:05.862Z,18.07
2023-03-21T01:48:42.036Z,18.13
2023-03-21T01:49:27.130Z,18.10
2023-03-21T01:50:03.847Z,19.37
2023-03-21T01:50:37.024Z,18.47
2023-03-21T01:51:12.609Z,18.70
2023-03-21T01:51:49.289Z,18.87
2023-03-21T01:52:36.501Z,18.93
2023-03-21T01:53:09.727Z,19.80
2023-03-21T01:53:42.334Z,19.50
2023-03-21T01:54:20.757Z,19.37
2023-03-21T01:54:55.948Z,19.03
2023-03-21T01:55:28.449Z,19.60
2023-03-21T01:56:06.992Z,19.57
2023-03-21T01:56:40.947Z,19.43
2023-03-21T01:57:25.835Z,19.40
2023-03-21T01:58:06.709Z,21.00
2023-03-21T01:58:42.185Z,20.20
2023-03-21T01:59:32.114Z,19.70
2023-03-21T02:00:12.539Z,20.37
2023-03-21T02:00:50.625Z,21.17
2023-03-21T02:01:23.233Z,19.87
2023-03-21T02:02:00.165Z,19.80
2023-03-21T02:02:31.971Z,19.40
2023-03-21T02:03:15.498Z,20.07
2023-03-21T02:03:52.231Z,18.87
2023-03-21T02:04:28.137Z,19.47
2023-03-21T02:05:04.056Z,20.03
2023-03-21T02:05:56.590Z,19.40
2023-03-21T02:07:05.690Z,19.47
2023-03-21T02:07:41.838Z,18.53
2023-03-21T02:08:14.173Z,18.50
2023-03-21T02:08:46.793Z,19.40
2023-03-21T02:09:25.046Z,18.90
2023-03-21T02:09:58.756Z,18.93
2023-03-21T02:10:32.993Z,18.57
2023-03-21T02:11:05.318Z,18.77
2023-03-21T02:11:39.127Z,19.73
2023-03-21T02:12:11.082Z,19.03
2023-03-21T02:12:45.719Z,19.17
2023-03-21T02:13:18.360Z,18.77
2023-03-21T02:13:53.636Z,18.63
2023-03-21T02:14:30.456Z,18.77
2023-03-21T02:15:02.279Z,18.53
2023-03-21T02:15:36.238Z,18.43
2023-03-21T02:16:20.353Z,18.87
2023-03-21T02:16:59.434Z,19.30
2023-03-21T02:17:43.075Z,19.13
2023-03-21T02:18:28.126Z,19.40
2023-03-21T02:19:02.917Z,20.00
2023-03-21T02:20:07.422Z,20.10
2023-03-21T02:21:15.583Z,18.33
2023-03-21T02:21:47.163Z,19.07
2023-03-21T02:22:42.537Z,18.67
2023-03-21T02:23:35.134Z,19.57
2023-03-21T02:24:40.020Z,19.47
2023-03-21T02:25:38.846Z,19.13
2023-03-21T02:26:43.918Z,19.47
2023-03-21T02:27:21.972Z,19.90
2023-03-21T02:28:11.764Z,20.37
2023-03-21T02:28:51.509Z,18.70
2023-03-21T02:29:28.746Z,19.93
2023-03-21T02:30:13.030Z,18.93
2023-03-21T02:31:06.718Z,19.10
2023-03-21T02:32:16.214Z,19.33
2023-03-21T02:33:00.808Z,18.93
2023-03-21T02:33:38.224Z,19.30
2023-03-21T02:34:12.683Z,19.00
2023-03-21T02:34:52.778Z,19.10
2023-03-21T02:35:52.366Z,18.93
2023-03-21T02:36:38.122Z,17.63
2023-03-21T02:37:09.825Z,17.83
2023-03-21T02:38:00.625Z,18.77
2023-03-21T02:38:44.639Z,18.87
2023-03-21T02:39:30.687Z,19.57
2023-03-21T02:40:11.056Z,18.90
2023-03-21T02:41:05.301Z,18.20
2023-03-21T02:41:56.640Z,18.33
2023-03-21T02:42:51.663Z,19.27
2023-03-21T02:43:43.677Z,18.70
2023-03-21T02:44:24.574Z,18.27
2023-03-21T02:45:16.206Z,18.80
2023-03-21T02:45:57.037Z,18.53
2023-03-21T02:46:42.947Z,18.43
2023-03-21T02:47:48.018Z,18.77
2023-03-21T02:48:35.382Z,18.53
2023-03-21T02:49:31.969Z,18.57
2023-03-21T02:50:16.021Z,18.30
2023-03-21T02:50:53.191Z,18.27
2023-03-21T02:51:30.338Z,17.60
2023-03-21T02:52:15.634Z,17.73
2023-03-21T02:52:55.160Z,17.57
2023-03-21T02:53:34.144Z,17.03
2023-03-21T02:54:30.266Z,17.73
2023-03-21T02:55:14.037Z,17.80
2023-03-21T02:55:47.226Z,18.40
2023-03-21T02:56:20.181Z,18.13
2023-03-21T02:56:55.602Z,18.10
2023-03-21T02:57:40.107Z,18.37
2023-03-21T02:58:20.407Z,17.60
2023-03-21T02:58:53.258Z,18.27
2023-03-21T02:59:27.564Z,17.93
2023-03-21T03:00:10.559Z,17.67
2023-03-21T03:00:48.619Z,17.73
2023-03-21T03:01:20.865Z,17.73
2023-03-21T03:01:54.727Z,17.97
2023-03-21T03:02:28.834Z,17.60
2023-03-21T03:03:09.245Z,18.27
2023-03-21T03:03:42.661Z,17.10
2023-03-21T03:04:23.066Z,17.87
2023-03-21T03:04:55.689Z,17.43
2023-03-21T03:05:30.581Z,18.03
2023-03-21T03:06:07.934Z,17.50
2023-03-21T03:07:09.110Z,18.87
2023-03-21T03:07:55.620Z,17.60
2023-03-21T03:08:42.840Z,17.40
2023-03-21T03:09:59.855Z,16.97
2023-03-21T03:11:19.091Z,17.67
2023-03-21T03:12:05.485Z,18.57
2023-03-21T03:12:46.065Z,17.43
2023-03-21T03:13:54.220Z,18.17
2023-03-21T03:14:49.833Z,17.50
2023-03-21T03:15:56.297Z,17.63
2023-03-21T03:17:09.907Z,17.53
2023-03-21T03:18:07.404Z,18.10
2023-03-21T03:18:51.350Z,17.23
2023-03-21T03:19:41.673Z,16.80
2023-03-21T03:20:39.143Z,16.37
2023-03-21T03:21:20.238Z,17.47
2023-03-21T03:22:00.076Z,17.50
2023-03-21T03:22:49.173Z,17.73
2023-03-21T03:23:32.956Z,17.27
2023-03-21T03:24:16.774Z,16.57
2023-03-21T03:24:57.154Z,16.90
2023-03-21T03:25:44.383Z,16.90
2023-03-21T03:26:30.154Z,17.13
2023-03-21T03:27:17.893Z,17.50
2023-03-21T03:27:53.312Z,19.03
2023-03-21T03:28:35.499Z,17.73
2023-03-21T03:29:16.738Z,17.20
2023-03-21T03:29:51.052Z,18.37
2023-03-21T03:30:32.291Z,17.87
2023-03-21T03:31:16.951Z,16.90
2023-03-21T03:31:56.911Z,17.07
2023-03-21T03:32:34.372Z,17.90
2023-03-21T03:33:10.515Z,17.73
2023-03-21T03:33:51.754Z,17.90
2023-03-21T03:34:29.777Z,18.20
2023-03-21T03:35:04.376Z,17.27
2023-03-21T03:35:36.562Z,17.90
2023-03-21T03:36:28.472Z,17.97
2023-03-21T03:37:06.995Z,17.90
2023-03-21T03:37:41.797Z,18.37
2023-03-21T03:38:14.332Z,18.10
2023-03-21T03:38:49.939Z,18.20
2023-03-21T03:39:27.700Z,17.90
2023-03-21T03:40:09.114Z,18.30
2023-03-21T03:40:46.040Z,18.83
2023-03-21T03:41:22.696Z,17.90
2023-03-21T03:42:15.400Z,18.07
2023-03-21T03:42:57.278Z,17.20
2023-03-21T03:43:43.287Z,18.13
2023-03-21T03:44:15.546Z,17.57
2023-03-21T03:44:48.009Z,18.07
2023-03-21T03:45:27.873Z,17.53
2023-03-21T03:46:15.319Z,17.90
2023-03-21T03:47:32.336Z,17.57
2023-03-21T03:48:32.563Z,18.23
2023-03-21T03:49:20.420Z,17.70
2023-03-21T03:50:09.076Z,17.73
2023-03-21T03:51:19.423Z,17.83
2023-03-21T03:52:20.337Z,17.33
2023-03-21T03:53:18.320Z,17.30
2023-03-21T03:54:01.287Z,17.53
2023-03-21T03:54:38.614Z,18.10
2023-03-21T03:55:16.305Z,17.97
2023-03-21T03:55:49.954Z,18.17
2023-03-21T03:56:22.539Z,17.33
2023-03-21T03:56:55.632Z,16.87
2023-03-21T03:57:27.968Z,18.13
2023-03-21T03:57:59.932Z,17.87
2023-03-21T03:58:44.455Z,18.20
2023-03-21T03:59:19.442Z,18.37
2023-03-21T03:59:51.148Z,17.93
2023-03-21T04:00:22.794Z,17.37
2023-03-21T04:00:56.111Z,17.33
2023-03-21T04:01:27.910Z,17.20
2023-03-21T04:01:59.759Z,17.17
2023-03-21T04:02:32.276Z,16.43
2023-03-21T04:03:07.401Z,17.37
2023-03-21T04:03:49.836Z,17.47
2023-03-21T04:04:23.085Z,17.63
2023-03-21T04:04:57.859Z,17.67
2023-03-21T04:05:29.650Z,17.47
2023-03-21T04:06:01.316Z,17.93
2023-03-21T04:06:33.210Z,17.97
2023-03-21T04:07:06.430Z,17.83
2023-03-21T04:07:38.091Z,17.60
2023-03-21T04:08:09.736Z,17.80
2023-03-21T04:08:41.377Z,17.57
2023-03-21T04:09:19.705Z,17.30
2023-03-21T04:09:53.659Z,18.13
2023-03-21T04:10:25.425Z,18.17
2023-03-21T04:10:57.083Z,17.17
2023-03-21T04:11:29.014Z,17.07
2023-03-21T04:12:00.959Z,17.93
2023-03-21T04:12:32.577Z,17.63
2023-03-21T04:13:04.242Z,17.80
2023-03-21T04:13:36.003Z,17.13
2023-03-21T04:14:07.692Z,16.70
2023-03-21T04:14:45.783Z,17.17
2023-03-21T04:15:22.115Z,16.73
2023-03-21T04:15:53.866Z,16.83
2023-03-21T04:16:25.991Z,16.63
2023-03-21T04:16:57.715Z,17.17
2023-03-21T04:17:29.408Z,17.70
2023-03-21T04:18:01.692Z,17.40
2023-03-21T04:18:33.353Z,16.23
2023-03-21T04:19:05.132Z,16.20
2023-03-21T04:19:36.892Z,16.50
2023-03-21T04:20:13.899Z,16.40
2023-03-21T04:20:51.520Z,15.63
2023-03-21T04:21:23.183Z,16.47
2023-03-21T04:21:54.894Z,15.77
2023-03-21T04:22:27.066Z,16.03
2023-03-21T04:22:58.770Z,16.03
2023-03-21T04:23:30.506Z,15.73
2023-03-21T04:24:02.533Z,15.80
2023-03-21T04:24:37.552Z,15.10
2023-03-21T04:25:09.522Z,15.50
2023-03-21T04:25:53.907Z,15.47
2023-03-21T04:26:32.945Z,16.33
2023-03-21T04:27:05.950Z,15.53
2023-03-21T04:27:37.596Z,15.07
2023-03-21T04:28:09.206Z,15.40
2023-03-21T04:28:41.601Z,16.10
2023-03-21T04:29:13.231Z,15.87
2023-03-21T04:29:45.026Z,16.33
2023-03-21T04:30:16.884Z,15.37
2023-03-21T04:31:01.304Z,14.87
2023-03-21T04:31:36.043Z,15.37
2023-03-21T04:32:16.345Z,15.53
2023-03-21T04:32:54.089Z,14.93
2023-03-21T04:33:26.438Z,15.13
2023-03-21T04:33:59.629Z,14.37
2023-03-21T04:34:31.311Z,14.43
2023-03-21T04:35:02.984Z,16.13
2023-03-21T04:35:37.661Z,16.63
2023-03-21T04:36:27.370Z,18.00
2023-03-21T04:36:59.153Z,17.37
2023-03-21T04:37:33.865Z,18.23
2023-03-21T04:38:05.550Z,18.83
2023-03-21T04:38:37.199Z,18.13
2023-03-21T04:39:12.631Z,17.60
2023-03-21T04:39:46.400Z,17.77
2023-03-21T04:40:18.873Z,17.43
2023-03-21T04:40:50.886Z,17.00
2023-03-21T04:41:22.827Z,17.53
2023-03-21T04:41:54.826Z,16.73
2023-03-21T04:42:26.494Z,17.17
2023-03-21T04:43:01.255Z,16.17
2023-03-21T04:43:32.915Z,15.97
2023-03-21T04:44:04.612Z,16.37
2023-03-21T04:44:36.823Z,16.33
2023-03-21T04:45:08.934Z,16.33
2023-03-21T04:45:40.985Z,15.80
2023-03-21T04:46:13.458Z,15.87
2023-03-21T04:46:45.230Z,16.47
2023-03-21T04:47:20.310Z,16.00
2023-03-21T04:47:52.035Z,16.53
2023-03-21T04:48:24.724Z,17.17
2023-03-21T04:48:56.394Z,16.23
2023-03-21T04:49:28.149Z,16.00
2023-03-21T04:49:59.844Z,17.17
2023-03-21T04:50:32.341Z,17.53
2023-03-21T04:51:03.980Z,16.67
2023-03-21T04:51:37.350Z,16.97
2023-03-21T04:52:09.058Z,17.23
2023-03-21T04:52:40.894Z,16.73
2023-03-21T04:53:13.212Z,16.17
2023-03-21T04:53:46.019Z,16.47
2023-03-21T04:54:17.854Z,16.60
2023-03-21T04:54:49.513Z,16.60
2023-03-21T04:55:21.715Z,16.80
2023-03-21T04:55:55.434Z,16.77
2023-03-21T04:56:36.367Z,16.33
2023-03-21T04:57:08.757Z,15.67
2023-03-21T04:57:40.500Z,15.83
2023-03-21T04:58:12.160Z,16.10
2023-03-21T04:58:43.973Z,16.10
2023-03-21T04:59:16.705Z,16.27
2023-03-21T04:59:48.381Z,17.30
2023-03-21T05:00:20.932Z,16.10
2023-03-21T05:00:53.116Z,16.47
2023-03-21T05:01:25.996Z,16.17
2023-03-21T05:01:58.694Z,16.20
2023-03-21T05:02:30.536Z,16.37
2023-03-21T05:03:02.191Z,16.50
2023-03-21T05:03:34.820Z,16.00
2023-03-21T05:04:07.078Z,15.83
2023-03-21T05:04:39.951Z,15.10
2023-03-21T05:05:12.261Z,16.33
2023-03-21T05:05:43.906Z,15.80
2023-03-21T05:06:16.132Z,15.93
2023-03-21T05:06:47.788Z,16.20
2023-03-21T05:07:19.613Z,16.43
2023-03-21T05:07:51.441Z,15.40
2023-03-21T05:08:23.102Z,15.43
2023-03-21T05:09:05.551Z,15.67
2023-03-21T05:09:37.426Z,16.20
2023-03-21T05:10:11.868Z,16.37
2023-03-21T05:10:44.083Z,16.10
2023-03-21T05:11:15.814Z,16.10
2023-03-21T05:11:48.001Z,15.33
2023-03-21T05:12:19.729Z,15.63
2023-03-21T05:12:51.464Z,16.30
2023-03-21T05:13:23.136Z,16.03
2023-03-21T05:13:54.778Z,15.67
2023-03-21T05:14:27.478Z,15.60
2023-03-21T05:14:59.117Z,16.57
2023-03-21T05:15:31.150Z,15.73
2023-03-21T05:16:02.833Z,16.53
2023-03-21T05:16:36.459Z,16.63
2023-03-21T05:17:08.341Z,16.77
2023-03-21T05:17:42.758Z,16.73
2023-03-21T05:18:14.420Z,16.70
2023-03-21T05:18:50.644Z,17.17
2023-03-21T05:19:35.202Z,17.30
2023-03-21T05:20:09.767Z,16.50
2023-03-21T05:20:45.005Z,16.90
2023-03-21T05:21:18.444Z,16.73
2023-03-21T05:21:50.678Z,16.53
2023-03-21T05:22:24.245Z,16.20
2023-03-21T05:22:55.903Z,16.27
2023-03-21T05:23:31.595Z,17.27
2023-03-21T05:24:03.685Z,16.93
2023-03-21T05:24:39.247Z,17.17
2023-03-21T05:25:11.746Z,17.13
2023-03-21T05:25:43.399Z,16.97
2023-03-21T05:26:15.039Z,16.87
2023-03-21T05:26:52.523Z,17.73
2023-03-21T05:27:36.498Z,17.30
2023-03-21T05:28:08.465Z,17.10
2023-03-21T05:28:40.166Z,17.43
2023-03-21T05:29:11.900Z,16.87
2023-03-21T05:29:43.532Z,17.00
2023-03-21T05:30:17.650Z,17.10
2023-03-21T05:30:49.434Z,16.83
2023-03-21T05:31:21.992Z,16.57
2023-03-21T05:31:53.716Z,16.37
2023-03-21T05:32:25.357Z,16.97
2023-03-21T05:32:57.246Z,17.20
2023-03-21T05:33:29.015Z,17.77
2023-03-21T05:34:01.008Z,17.53
2023-03-21T05:34:32.744Z,16.87
2023-03-21T05:35:05.066Z,16.87
2023-03-21T05:35:37.004Z,17.07
2023-03-21T05:36:09.568Z,15.60
2023-03-21T05:36:41.278Z,14.27
2023-03-21T05:37:12.904Z,15.53
2023-03-21T05:37:44.555Z,17.20
2023-03-21T05:38:16.981Z,16.93
2023-03-21T05:38:48.706Z,16.50
2023-03-21T05:39:20.956Z,16.20
2023-03-21T05:39:52.768Z,17.00
2023-03-21T05:40:24.436Z,16.63
2023-03-21T05:40:56.148Z,15.27
2023-03-21T05:41:27.883Z,15.33
2023-03-21T05:41:59.625Z,15.30
2023-03-21T05:42:31.334Z,16.37
2023-03-21T05:43:03.049Z,16.03
2023-03-21T05:43:34.729Z,15.87
2023-03-21T05:44:06.413Z,16.50
2023-03-21T05:44:40.470Z,16.90
2023-03-21T05:45:12.122Z,17.07
2023-03-21T05:45:44.326Z,16.30
2023-03-21T05:46:16.352Z,15.50
2023-03-21T05:46:48.055Z,15.87
2023-03-21T05:47:19.695Z,16.40
2023-03-21T05:47:51.668Z,16.60
2023-03-21T05:48:23.380Z,15.80
2023-03-21T05:48:55.067Z,15.07
2023-03-21T05:49:27.048Z,14.70
2023-03-21T05:49:58.792Z,15.40
2023-03-21T05:50:30.801Z,15.17
2023-03-21T05:51:03.573Z,15.10
2023-03-21T05:51:35.366Z,16.50
2023-03-21T05:52:07.255Z,16.10
2023-03-21T05:52:39.544Z,16.70
2023-03-21T05:53:11.526Z,16.40
2023-03-21T05:53:43.217Z,15.57
2023-03-21T05:54:16.850Z,15.23
2023-03-21T05:54:48.649Z,16.03
2023-03-21T05:55:20.381Z,15.57
2023-03-21T05:55:52.024Z,16.10
2023-03-21T05:56:23.688Z,16.30
2023-03-21T05:56:55.899Z,15.63
2023-03-21T05:57:28.903Z,16.30
2023-03-21T05:58:00.730Z,15.77
2023-03-21T05:58:32.446Z,16.73
2023-03-21T05:59:04.118Z,17.37
2023-03-21T05:59:35.871Z,17.60
2023-03-21T06:00:08.678Z,16.97
2023-03-21T06:00:40.320Z,17.30
2023-03-21T06:01:12.068Z,16.83
2023-03-21T06:01:43.811Z,16.60
2023-03-21T06:02:16.138Z,16.17
2023-03-21T06:02:47.922Z,17.57
2023-03-21T06:03:19.626Z,18.37
2023-03-21T06:03:51.390Z,19.33
2023-03-21T06:04:23.015Z,19.63
2023-03-21T06:04:54.673Z,19.13
2023-03-21T06:05:26.308Z,19.90
2023-03-21T06:05:58.018Z,21.07
2023-03-21T06:06:29.651Z,22.77
2023-03-21T06:07:01.515Z,23.80
2023-03-21T06:07:33.862Z,23.63
2023-03-21T06:08:05.840Z,21.97
2023-03-21T06:08:37.501Z,21.93
2023-03-21T06:09:09.166Z,22.27
2023-03-21T06:09:40.864Z,20.60
2023-03-21T06:10:12.936Z,18.83
2023-03-21T06:10:44.598Z,18.73
2023-03-21T06:11:32.290Z,18.90
2023-03-21T06:12:04.072Z,18.40
2023-03-21T06:12:36.295Z,19.23
2023-03-21T06:13:07.950Z,17.43
2023-03-21T06:13:39.600Z,15.13
2023-03-21T06:14:11.345Z,17.17
2023-03-21T06:14:43.007Z,16.67
2023-03-21T06:15:14.875Z,17.30
2023-03-21T06:15:46.669Z,16.70
2023-03-21T06:16:18.435Z,16.93
2023-03-21T06:16:50.679Z,16.93
2023-03-21T06:17:22.483Z,17.67
2023-03-21T06:17:54.193Z,17.73
2023-03-21T06:18:26.280Z,17.00
2023-03-21T06:18:57.961Z,16.23
2023-03-21T06:19:29.601Z,16.67
2023-03-21T06:20:01.726Z,16.50
2023-03-21T06:20:33.407Z,17.20
2023-03-21T06:21:05.222Z,16.80
2023-03-21T06:21:37.060Z,16.87
2023-03-21T06:22:08.924Z,16.90
2023-03-21T06:22:40.951Z,16.50
2023-03-21T06:23:12.626Z,15.77
2023-03-21T06:23:44.283Z,16.37
2023-03-21T06:24:17.802Z,16.03
2023-03-21T06:24:49.471Z,16.17
2023-03-21T06:25:21.898Z,16.33
2023-03-21T06:25:53.630Z,16.47
2023-03-21T06:26:25.420Z,16.07
2023-03-21T06:26:57.290Z,15.87
2023-03-21T06:27:28.948Z,16.23
2023-03-21T06:28:00.627Z,16.57
2023-03-21T06:28:32.439Z,15.10
2023-03-21T06:29:04.942Z,15.47
2023-03-21T06:29:36.607Z,16.07
2023-03-21T06:30:09.117Z,16.73
2023-03-21T06:30:40.830Z,16.83
2023-03-21T06:31:12.517Z,16.67
2023-03-21T06:31:44.257Z,16.70
2023-03-21T06:32:16.300Z,16.43
2023-03-21T06:32:47.939Z,16.33
2023-03-21T06:33:19.656Z,16.80
2023-03-21T06:33:51.853Z,16.83
2023-03-21T06:34:23.579Z,16.67
2023-03-21T06:34:55.448Z,15.97
2023-03-21T06:35:27.117Z,15.60
2023-03-21T06:35:59.105Z,14.87
2023-03-21T06:36:30.806Z,16.10
2023-03-21T06:37:04.078Z,16.23
2023-03-21T06:37:35.787Z,16.33
2023-03-21T06:38:08.521Z,16.47
2023-03-21T06:38:40.504Z,16.57
2023-03-21T06:39:12.795Z,17.60
2023-03-21T06:39:44.778Z,16.70
2023-03-21T06:40:16.774Z,16.70
2023-03-21T06:40:48.696Z,16.70
2023-03-21T06:41:20.365Z,16.50
2023-03-21T06:41:52.037Z,16.70
2023-03-21T06:42:24.000Z,16.97
2023-03-21T06:42:55.910Z,16.73
2023-03-21T06:43:27.545Z,16.87
2023-03-21T06:43:59.482Z,16.40
2023-03-21T06:44:31.138Z,16.57
2023-03-21T06:45:03.411Z,17.13
2023-03-21T06:45:35.445Z,17.73
2023-03-21T06:46:07.271Z,16.27
2023-03-21T06:46:38.968Z,16.03
2023-03-21T06:47:10.772Z,15.97
2023-03-21T06:47:42.505Z,15.40
2023-03-21T06:48:14.307Z,14.63
2023-03-21T06:48:46.269Z,15.30
2023-03-21T06:49:18.235Z,14.77
2023-03-21T06:49:49.889Z,14.67
2023-03-21T06:50:21.975Z,15.13
2023-03-21T06:50:55.247Z,14.60
2023-03-21T06:51:26.929Z,15.03
2023-03-21T06:51:58.585Z,15.13
2023-03-21T06:52:30.245Z,14.77
2023-03-21T06:53:02.545Z,14.53
2023-03-21T06:53:36.040Z,14.00
2023-03-21T06:54:07.906Z,14.13
2023-03-21T06:54:39.683Z,14.97
2023-03-21T06:55:11.494Z,14.50
2023-03-21T06:55:43.188Z,14.93
2023-03-21T06:56:15.495Z,13.97
2023-03-21T06:56:47.384Z,14.63
2023-03-21T06:57:21.895Z,15.20
2023-03-21T06:57:53.932Z,14.63
2023-03-21T06:58:25.634Z,14.37
2023-03-21T06:58:57.336Z,14.97
2023-03-21T06:59:29.026Z,14.27
2023-03-21T07:00:00.767Z,14.47
2023-03-21T07:00:33.195Z,13.33
2023-03-21T07:01:06.082Z,13.63
2023-03-21T07:01:38.146Z,13.67
2023-03-21T07:02:15.340Z,13.43
2023-03-21T07:02:50.026Z,13.77
2023-03-21T07:03:23.578Z,14.57
2023-03-21T07:03:57.518Z,13.90
2023-03-21T07:04:29.193Z,14.63
2023-03-21T07:05:00.933Z,14.60
2023-03-21T07:05:32.564Z,14.17
2023-03-21T07:06:11.749Z,13.30
2023-03-21T07:06:43.476Z,13.30
2023-03-21T07:07:15.837Z,13.00
2023-03-21T07:07:48.619Z,13.90
2023-03-21T07:08:20.694Z,13.07
2023-03-21T07:08:53.585Z,12.93
2023-03-21T07:09:28.096Z,13.70
2023-03-21T07:09:59.778Z,13.97
2023-03-21T07:10:31.741Z,13.47
2023-03-21T07:11:03.444Z,12.93
2023-03-21T07:11:37.036Z,13.60
2023-03-21T07:12:08.739Z,13.47
2023-03-21T07:12:40.383Z,13.43
2023-03-21T07:13:13.468Z,13.67
2023-03-21T07:13:45.602Z,13.83
2023-03-21T07:14:17.555Z,14.20
2023-03-21T07:14:49.237Z,13.37
2023-03-21T07:15:21.125Z,13.17
2023-03-21T07:15:54.363Z,13.67
2023-03-21T07:16:26.213Z,13.03
2023-03-21T07:16:57.964Z,12.93
2023-03-21T07:17:29.645Z,13.67
2023-03-21T07:18:01.329Z,13.50
2023-03-21T07:18:33.336Z,13.03
2023-03-21T07:19:05.136Z,13.33
2023-03-21T07:19:38.220Z,13.90
2023-03-21T07:20:11.669Z,13.90
2023-03-21T07:20:48.569Z,13.33
2023-03-21T07:21:20.298Z,13.40
2023-03-21T07:21:52.737Z,13.17
2023-03-21T07:22:24.423Z,13.50
2023-03-21T07:22:56.280Z,13.33
2023-03-21T07:23:28.609Z,13.20
2023-03-21T07:24:00.391Z,12.47
2023-03-21T07:24:32.186Z,12.43
2023-03-21T07:25:05.601Z,12.80
2023-03-21T07:25:37.842Z,13.40
2023-03-21T07:26:10.015Z,12.53
2023-03-21T07:26:41.670Z,12.77
2023-03-21T07:27:13.311Z,12.53
2023-03-21T07:27:44.962Z,12.90
2023-03-21T07:28:17.978Z,13.03
2023-03-21T07:28:49.609Z,13.30
2023-03-21T07:29:23.204Z,12.00
2023-03-21T07:29:54.911Z,12.40
2023-03-21T07:30:27.234Z,12.33
2023-03-21T07:31:02.657Z,11.50
2023-03-21T07:31:35.690Z,11.93
2023-03-21T07:32:07.565Z,11.70
2023-03-21T07:32:39.735Z,11.57
2023-03-21T07:33:12.299Z,11.67
2023-03-21T07:33:44.042Z,12.17
2023-03-21T07:34:16.969Z,11.73
2023-03-21T07:34:48.614Z,11.90
2023-03-21T07:35:20.461Z,12.43
2023-03-21T07:35:54.308Z,11.87
2023-03-21T07:36:26.504Z,11.80
2023-03-21T07:36:58.158Z,11.60
2023-03-21T07:37:29.854Z,11.57
2023-03-21T07:38:01.650Z,11.97
2023-03-21T07:38:33.428Z,12.50
2023-03-21T07:39:05.125Z,11.37
2023-03-21T07:39:36.990Z,11.67